Time;durP1;ratioP1;P1;durP2;ratioP2;P2;SDS_P1;SDS_P2;PMS_P1;PMS_P2;Temp;Humidity;BMP_temperature;BMP_pressure;BME280_temperature;BME280_humidity;BME280_pressure;Samples;Min_cycle;Max_cycle;Signal;HPM_P1;HPM_P2
2023/04/13 00:02:18;;;;;;;;;2.50;1.25;;;;;;;;4985054;28;45399;-80
2023/04/13 00:04:43;;;;;;;;;0.00;0.00;;;;;;;;4987818;28;45375;-80
2023/04/13 00:07:15;;;;;;;;;4.00;1.00;;;;;;;;4987620;28;45291;-78
2023/04/13 00:09:41;;;;;;;;;4.50;1.00;;;;;;;;4987999;28;46304;-80
2023/04/13 00:12:06;;;;;;;;;0.00;0.00;;;;;;;;4987064;28;45461;-79
2023/04/13 00:14:34;;;;;;;;;3.50;1.25;;;;;;;;4986499;28;45491;-81
2023/04/13 00:16:59;;;;;;;;;2.25;2.00;;;;;;;;4988188;28;45418;-80
2023/04/13 00:19:25;;;;;;;;;2.50;0.75;;;;;;;;4984287;28;46221;-79
2023/04/13 00:21:52;;;;;;;;;3.25;1.75;;;;;;;;4987159;28;45526;-79
2023/04/13 00:24:18;;;;;;;;;0.00;0.00;;;;;;;;4986131;28;45408;-80
2023/04/13 00:26:44;;;;;;;;;1.50;1.00;;;;;;;;4986115;28;45442;-78
2023/04/13 00:29:10;;;;;;;;;2.75;1.00;;;;;;;;4986444;28;47472;-79
2023/04/13 00:31:35;;;;;;;;;1.50;1.50;;;;;;;;4987523;28;45324;-79
2023/04/13 00:34:00;;;;;;;;;5.00;0.50;;;;;;;;4985261;28;45379;-79
2023/04/13 00:36:26;;;;;;;;;1.75;0.50;;;;;;;;4986628;28;45479;-78
2023/04/13 00:38:53;;;;;;;;;2.00;1.00;;;;;;;;4985292;28;47328;-77
2023/04/13 00:41:19;;;;;;;;;0.00;0.00;;;;;;;;4985926;28;45595;-80
2023/04/13 00:43:44;;;;;;;;;1.00;1.00;;;;;;;;4986211;28;45454;-78
2023/04/13 00:46:09;;;;;;;;;2.00;1.00;;;;;;;;4988715;28;45429;-81
2023/04/13 00:48:35;;;;;;;;;2.50;1.00;;;;;;;;4996769;28;46103;-81
2023/04/13 00:51:01;;;;;;;;;1.25;1.25;;;;;;;;4995032;28;45753;-78
2023/04/13 00:53:27;;;;;;;;;4.75;1.25;;;;;;;;4986462;28;45353;-79
2023/04/13 00:55:52;;;;;;;;;2.75;1.00;;;;;;;;4982062;28;45342;-78
2023/04/13 00:58:18;;;;;;;;;2.00;0.25;;;;;;;;4984912;28;45470;-80
2023/04/13 01:00:43;;;;;;;;;1.00;1.00;;;;;;;;4986595;28;45297;-79
2023/04/13 01:03:08;;;;;;;;;4.50;0.00;;;;;;;;4986370;28;45411;-78
2023/04/13 01:05:50;;;;;;;;;2.25;1.75;;;;;;;;4986068;28;45608;-78
2023/04/13 01:08:24;;;;;;;;;3.75;1.75;;;;;;;;4986525;28;47371;-79
2023/04/13 01:10:51;;;;;;;;;5.25;1.00;;;;;;;;4986328;28;45665;-78
2023/04/13 01:13:20;;;;;;;;;2.50;1.00;;;;;;;;4985265;28;45452;-77
2023/04/13 01:16:08;;;;;;;;;0.50;0.50;;;;;;;;4986482;28;45344;-79
2023/04/13 01:18:37;;;;;;;;;3.25;1.00;;;;;;;;4986538;28;46634;-79
2023/04/13 01:21:03;;;;;;;;;1.00;1.00;;;;;;;;4977042;28;45403;-79
2023/04/13 01:23:34;;;;;;;;;4.00;1.25;;;;;;;;4977059;28;45911;-78
2023/04/13 01:26:01;;;;;;;;;5.00;1.50;;;;;;;;4987137;28;45357;-78
2023/04/13 01:28:26;;;;;;;;;3.50;2.00;;;;;;;;4985366;28;45410;-79
2023/04/13 01:30:52;;;;;;;;;5.00;3.00;;;;;;;;4988770;28;45514;-78
2023/04/13 01:33:18;;;;;;;;;2.75;1.25;;;;;;;;4991941;28;45478;-78
2023/04/13 01:35:44;;;;;;;;;2.50;1.00;;;;;;;;4998359;28;45476;-77
2023/04/13 01:38:11;;;;;;;;;2.25;2.00;;;;;;;;4999674;28;45400;-79
2023/04/13 01:40:39;;;;;;;;;3.25;1.25;;;;;;;;4990254;28;45412;-79
2023/04/13 01:43:05;;;;;;;;;2.75;1.00;;;;;;;;4992019;28;45461;-79
2023/04/13 01:45:35;;;;;;;;;2.25;1.00;;;;;;;;4992065;28;45436;-80
2023/04/13 01:48:04;;;;;;;;;3.00;1.00;;;;;;;;4991183;28;45536;-78
2023/04/13 01:50:50;;;;;;;;;2.50;2.50;;;;;;;;4989781;28;45373;-79
2023/04/13 01:53:29;;;;;;;;;3.75;2.00;;;;;;;;4989469;28;45341;-79
2023/04/13 01:55:54;;;;;;;;;1.00;1.00;;;;;;;;4963060;28;45441;-79
2023/04/13 01:58:20;;;;;;;;;3.00;2.00;;;;;;;;4961854;28;46791;-79
2023/04/13 02:00:45;;;;;;;;;2.75;1.00;;;;;;;;4966575;28;45366;-78
2023/04/13 02:03:11;;;;;;;;;3.50;1.00;;;;;;;;4991901;28;45522;-78
2023/04/13 02:05:36;;;;;;;;;0.75;0.75;;;;;;;;4992961;28;45447;-78
2023/04/13 02:08:04;;;;;;;;;1.75;1.75;;;;;;;;4993230;28;46257;-78
2023/04/13 02:10:30;;;;;;;;;1.00;1.00;;;;;;;;4989791;28;45460;-78
2023/04/13 02:12:55;;;;;;;;;1.50;1.00;;;;;;;;4993134;28;45437;-79
2023/04/13 02:15:20;;;;;;;;;3.00;0.50;;;;;;;;4992907;28;45460;-79
2023/04/13 02:17:46;;;;;;;;;3.00;2.00;;;;;;;;4989224;28;47998;-79
2023/04/13 02:20:11;;;;;;;;;1.00;1.00;;;;;;;;4990703;28;45332;-79
2023/04/13 02:22:38;;;;;;;;;3.25;2.75;;;;;;;;4992413;28;45416;-79
2023/04/13 02:25:05;;;;;;;;;0.75;0.75;;;;;;;;4992890;28;45348;-79
2023/04/13 02:27:30;;;;;;;;;1.25;0.25;;;;;;;;4990741;28;45351;-79
2023/04/13 02:29:56;;;;;;;;;1.00;1.00;;;;;;;;4991292;28;45317;-79
2023/04/13 02:32:21;;;;;;;;;1.50;1.50;;;;;;;;4990401;28;45360;-78
2023/04/13 02:34:46;;;;;;;;;3.75;1.50;;;;;;;;4992472;28;45327;-78
2023/04/13 02:37:12;;;;;;;;;2.00;2.00;;;;;;;;4990503;28;47247;-79
2023/04/13 02:39:37;;;;;;;;;0.75;0.75;;;;;;;;4992133;28;45856;-79
2023/04/13 02:42:03;;;;;;;;;3.00;3.00;;;;;;;;4989882;28;45500;-77
2023/04/13 02:44:29;;;;;;;;;1.00;1.00;;;;;;;;4987028;28;45403;-80
2023/04/13 02:46:54;;;;;;;;;2.50;2.50;;;;;;;;4988814;28;45414;-77
2023/04/13 02:49:19;;;;;;;;;3.00;2.00;;;;;;;;4988018;28;45513;-78
2023/04/13 02:51:45;;;;;;;;;3.75;1.25;;;;;;;;4987206;28;45461;-77
2023/04/13 02:54:10;;;;;;;;;1.75;1.00;;;;;;;;4988947;28;45451;-79
2023/04/13 02:56:35;;;;;;;;;3.50;1.75;;;;;;;;4987582;28;46079;-78
2023/04/13 02:59:01;;;;;;;;;3.25;2.00;;;;;;;;4988127;28;45685;-79
2023/04/13 03:01:28;;;;;;;;;2.00;1.00;;;;;;;;4989287;28;45539;-79
2023/04/13 03:03:53;;;;;;;;;0.75;0.75;;;;;;;;4986493;28;45359;-78
2023/04/13 03:06:18;;;;;;;;;2.50;2.50;;;;;;;;4986962;28;45381;-78
2023/04/13 03:08:43;;;;;;;;;2.00;2.00;;;;;;;;4986664;28;45556;-78
2023/04/13 03:11:09;;;;;;;;;4.25;1.00;;;;;;;;4992251;28;45419;-78
2023/04/13 03:13:34;;;;;;;;;1.00;1.00;;;;;;;;4998615;28;45380;-78
2023/04/13 03:16:00;;;;;;;;;1.00;1.00;;;;;;;;4998135;28;46090;-78
2023/04/13 03:18:26;;;;;;;;;3.50;2.25;;;;;;;;4998447;28;45523;-79
2023/04/13 03:20:52;;;;;;;;;4.00;2.75;;;;;;;;4997922;28;45419;-78
2023/04/13 03:23:17;;;;;;;;;0.50;0.00;;;;;;;;4978421;28;45793;-81
2023/04/13 03:25:42;;;;;;;;;0.75;0.75;;;;;;;;4978680;28;46019;-78
2023/04/13 03:28:07;;;;;;;;;3.50;0.50;;;;;;;;4978604;28;45433;-80
2023/04/13 03:30:32;;;;;;;;;1.00;1.00;;;;;;;;4972621;28;45372;-79
2023/04/13 03:32:58;;;;;;;;;4.00;2.50;;;;;;;;4985864;28;45488;-78
2023/04/13 03:35:23;;;;;;;;;2.75;0.75;;;;;;;;4987828;28;46146;-77
2023/04/13 03:37:49;;;;;;;;;3.25;1.75;;;;;;;;4988145;28;45463;-79
2023/04/13 03:40:14;;;;;;;;;2.75;1.25;;;;;;;;4987497;28;45600;-78
2023/04/13 03:42:39;;;;;;;;;1.00;0.00;;;;;;;;4986691;28;45426;-79
2023/04/13 03:45:05;;;;;;;;;2.75;1.25;;;;;;;;4989405;28;46227;-79
2023/04/13 03:47:30;;;;;;;;;2.50;1.50;;;;;;;;4987630;28;45450;-79
2023/04/13 03:49:56;;;;;;;;;6.25;1.25;;;;;;;;4985838;28;45473;-79
2023/04/13 03:52:21;;;;;;;;;2.00;2.00;;;;;;;;4988566;28;45408;-78
2023/04/13 03:54:46;;;;;;;;;1.25;1.00;;;;;;;;4986647;28;45442;-78
2023/04/13 03:57:11;;;;;;;;;3.25;1.00;;;;;;;;4988633;28;45496;-79
2023/04/13 03:59:36;;;;;;;;;3.25;2.00;;;;;;;;4985968;28;45360;-78
2023/04/13 04:02:02;;;;;;;;;3.00;0.00;;;;;;;;4988056;28;45307;-78
2023/04/13 04:04:27;;;;;;;;;3.00;2.00;;;;;;;;4986588;28;45458;-79
2023/04/13 04:06:52;;;;;;;;;2.25;2.00;;;;;;;;4986455;28;45274;-78
2023/04/13 04:09:17;;;;;;;;;2.00;0.00;;;;;;;;4986955;28;45329;-78
2023/04/13 04:11:43;;;;;;;;;1.25;1.25;;;;;;;;4987670;28;45260;-77
2023/04/13 04:14:08;;;;;;;;;1.75;1.75;;;;;;;;4986799;28;45598;-78
2023/04/13 04:16:33;;;;;;;;;3.00;1.75;;;;;;;;4987134;28;45387;-78
2023/04/13 04:18:59;;;;;;;;;5.75;2.00;;;;;;;;4985190;28;45333;-78
2023/04/13 04:21:33;;;;;;;;;1.50;0.50;;;;;;;;4986654;28;45166;-79
2023/04/13 04:23:59;;;;;;;;;2.00;2.00;;;;;;;;4986873;28;46525;-78
2023/04/13 04:26:24;;;;;;;;;2.00;1.00;;;;;;;;4985662;28;45472;-78
2023/04/13 04:28:50;;;;;;;;;3.00;1.25;;;;;;;;4985942;28;45468;-79
2023/04/13 04:31:16;;;;;;;;;1.25;1.00;;;;;;;;4986883;28;45527;-78
2023/04/13 04:33:42;;;;;;;;;3.75;1.00;;;;;;;;4985497;28;47177;-78
2023/04/13 04:36:09;;;;;;;;;2.75;2.00;;;;;;;;4986327;28;45748;-78
2023/04/13 04:38:34;;;;;;;;;1.00;1.00;;;;;;;;4987191;28;45405;-79
2023/04/13 04:41:00;;;;;;;;;1.00;1.00;;;;;;;;4986445;28;45410;-78
2023/04/13 04:43:28;;;;;;;;;0.50;0.25;;;;;;;;4987238;28;47005;-79
2023/04/13 04:45:56;;;;;;;;;1.50;1.00;;;;;;;;4988106;28;45360;-78
2023/04/13 04:48:23;;;;;;;;;3.75;2.00;;;;;;;;4980530;28;45374;-78
2023/04/13 04:50:51;;;;;;;;;2.75;0.50;;;;;;;;4985590;28;45443;-78
2023/04/13 04:53:16;;;;;;;;;1.25;1.25;;;;;;;;4989990;28;45587;-77
2023/04/13 04:55:41;;;;;;;;;4.75;3.25;;;;;;;;4993430;28;45982;-79
2023/04/13 04:58:07;;;;;;;;;1.25;1.00;;;;;;;;4987928;28;45440;-78
2023/04/13 05:00:32;;;;;;;;;5.75;3.50;;;;;;;;4989866;28;45368;-77
2023/04/13 05:02:59;;;;;;;;;6.00;4.00;;;;;;;;4989742;28;45522;-78
2023/04/13 05:05:25;;;;;;;;;1.25;1.25;;;;;;;;4977870;28;45417;-78
2023/04/13 05:07:50;;;;;;;;;3.75;1.50;;;;;;;;4978266;28;45749;-78
2023/04/13 05:10:15;;;;;;;;;3.25;1.00;;;;;;;;4976688;28;45342;-77
2023/04/13 05:12:40;;;;;;;;;5.00;2.00;;;;;;;;4976399;28;45349;-78
2023/04/13 05:15:06;;;;;;;;;3.75;3.00;;;;;;;;4975549;28;45397;-77
2023/04/13 05:17:31;;;;;;;;;1.25;1.25;;;;;;;;4977797;28;45267;-78
2023/04/13 05:19:56;;;;;;;;;3.50;2.00;;;;;;;;4978268;28;45467;-76
2023/04/13 05:22:22;;;;;;;;;2.00;2.00;;;;;;;;4976868;28;45408;-76
2023/04/13 05:24:47;;;;;;;;;1.50;1.50;;;;;;;;4977552;28;45416;-75
2023/04/13 05:27:14;;;;;;;;;4.25;2.50;;;;;;;;4975871;28;45392;-74
2023/04/13 05:29:40;;;;;;;;;8.25;1.50;;;;;;;;4975501;28;45531;-74
2023/04/13 05:32:05;;;;;;;;;1.50;1.50;;;;;;;;4968173;28;46399;-74
2023/04/13 05:34:32;;;;;;;;;3.50;2.50;;;;;;;;4993838;28;45463;-73
2023/04/13 05:36:58;;;;;;;;;2.00;1.00;;;;;;;;4994895;28;45267;-74
2023/04/13 05:39:23;;;;;;;;;2.00;2.00;;;;;;;;4994641;28;45579;-74
2023/04/13 05:41:49;;;;;;;;;4.00;3.00;;;;;;;;4985792;28;47057;-74
2023/04/13 05:44:14;;;;;;;;;1.25;0.50;;;;;;;;4978144;28;45397;-75
2023/04/13 05:46:39;;;;;;;;;5.00;2.00;;;;;;;;4984350;28;45420;-75
2023/04/13 05:49:05;;;;;;;;;1.00;1.00;;;;;;;;4991394;28;45548;-76
2023/04/13 05:51:31;;;;;;;;;6.75;3.00;;;;;;;;4994744;28;45608;-75
2023/04/13 05:53:57;;;;;;;;;4.50;3.00;;;;;;;;4996505;28;45365;-77
2023/04/13 05:56:23;;;;;;;;;4.50;3.25;;;;;;;;4996556;28;45366;-77
2023/04/13 05:58:48;;;;;;;;;7.50;2.00;;;;;;;;4996971;28;45319;-77
2023/04/13 06:01:13;;;;;;;;;5.00;2.50;;;;;;;;4996733;28;45416;-78
2023/04/13 06:03:38;;;;;;;;;0.25;0.25;;;;;;;;4996448;28;45419;-77
2023/04/13 06:06:04;;;;;;;;;4.00;1.25;;;;;;;;4983487;28;45321;-78
2023/04/13 06:08:32;;;;;;;;;2.25;1.00;;;;;;;;4980622;28;45521;-78
2023/04/13 06:10:58;;;;;;;;;4.25;2.00;;;;;;;;4983217;28;46135;-77
2023/04/13 06:13:24;;;;;;;;;5.00;2.00;;;;;;;;4986184;28;45575;-79
2023/04/13 06:15:49;;;;;;;;;1.00;1.00;;;;;;;;4993014;28;45483;-78
2023/04/13 06:18:15;;;;;;;;;8.00;3.00;;;;;;;;4974883;28;45414;-79
2023/04/13 06:20:40;;;;;;;;;2.00;2.00;;;;;;;;4960804;28;45544;-77
2023/04/13 06:23:06;;;;;;;;;3.00;2.50;;;;;;;;4960579;28;45411;-77
2023/04/13 06:25:31;;;;;;;;;3.00;3.00;;;;;;;;4960950;28;45317;-77
2023/04/13 06:27:56;;;;;;;;;3.50;3.00;;;;;;;;4961214;28;45330;-77
2023/04/13 06:30:22;;;;;;;;;7.00;3.00;;;;;;;;4968594;28;45333;-78
2023/04/13 06:32:47;;;;;;;;;2.25;1.00;;;;;;;;4960325;28;45423;-77
2023/04/13 06:35:12;;;;;;;;;4.00;1.00;;;;;;;;4961282;28;45433;-77
2023/04/13 06:37:38;;;;;;;;;1.25;0.25;;;;;;;;4961190;28;45309;-77
2023/04/13 06:40:09;;;;;;;;;1.50;1.50;;;;;;;;4959696;28;47425;-78
2023/04/13 06:42:36;;;;;;;;;1.75;1.75;;;;;;;;4960667;28;45274;-77
2023/04/13 06:45:01;;;;;;;;;1.75;1.75;;;;;;;;4961105;28;45262;-78
2023/04/13 06:47:26;;;;;;;;;4.00;4.00;;;;;;;;4961958;28;44792;-77
2023/04/13 06:49:51;;;;;;;;;1.75;1.25;;;;;;;;4959198;28;48390;-78
2023/04/13 06:52:17;;;;;;;;;3.25;3.00;;;;;;;;4960967;28;45382;-79
2023/04/13 06:54:42;;;;;;;;;3.50;2.00;;;;;;;;4960825;28;45430;-76
2023/04/13 06:57:07;;;;;;;;;2.00;2.00;;;;;;;;4961382;28;45378;-77
2023/04/13 06:59:32;;;;;;;;;2.00;1.00;;;;;;;;4959856;28;45306;-76
2023/04/13 07:01:58;;;;;;;;;0.00;0.00;;;;;;;;4958233;28;45536;-76
2023/04/13 07:04:23;;;;;;;;;3.75;1.00;;;;;;;;4960690;28;45420;-78
2023/04/13 07:06:48;;;;;;;;;3.50;2.00;;;;;;;;4961072;28;45301;-77
2023/04/13 07:09:13;;;;;;;;;1.75;1.75;;;;;;;;4977129;28;45479;-79
2023/04/13 07:11:38;;;;;;;;;1.00;1.00;;;;;;;;4979406;28;45528;-77
2023/04/13 07:14:04;;;;;;;;;2.50;1.50;;;;;;;;4978827;28;45340;-77
2023/04/13 07:16:29;;;;;;;;;3.25;0.75;;;;;;;;4979305;28;45397;-76
2023/04/13 07:18:54;;;;;;;;;1.75;1.75;;;;;;;;4978883;28;45908;-77
2023/04/13 07:21:20;;;;;;;;;4.00;0.75;;;;;;;;4979379;28;45354;-76
2023/04/13 07:23:45;;;;;;;;;1.50;0.00;;;;;;;;4979153;28;45401;-77
2023/04/13 07:26:14;;;;;;;;;5.00;2.00;;;;;;;;4978493;28;45469;-75
2023/04/13 07:28:39;;;;;;;;;2.00;2.00;;;;;;;;4977739;28;45930;-76
2023/04/13 07:31:05;;;;;;;;;8.75;3.00;;;;;;;;4967716;28;45389;-76
2023/04/13 07:33:31;;;;;;;;;1.00;1.00;;;;;;;;4959152;28;45408;-76
2023/04/13 07:35:56;;;;;;;;;1.25;1.25;;;;;;;;4958158;28;45461;-76
2023/04/13 07:38:21;;;;;;;;;3.25;2.00;;;;;;;;4971472;28;46262;-77
2023/04/13 07:40:46;;;;;;;;;4.50;2.75;;;;;;;;4978460;28;45366;-77
2023/04/13 07:43:11;;;;;;;;;4.00;3.00;;;;;;;;4978736;28;45408;-77
2023/04/13 07:45:37;;;;;;;;;3.50;1.00;;;;;;;;4977672;28;45490;-77
2023/04/13 07:48:02;;;;;;;;;2.00;1.00;;;;;;;;4978969;28;45292;-77
2023/04/13 07:50:27;;;;;;;;;2.75;1.50;;;;;;;;4978100;28;45434;-76
2023/04/13 07:52:52;;;;;;;;;3.75;2.00;;;;;;;;4977786;28;45337;-77
2023/04/13 07:55:17;;;;;;;;;3.75;1.50;;;;;;;;4979554;28;45364;-78
2023/04/13 07:57:42;;;;;;;;;2.50;1.25;;;;;;;;4979493;28;46358;-76
2023/04/13 08:00:11;;;;;;;;;3.50;1.25;;;;;;;;4980289;28;45444;-77
2023/04/13 08:02:36;;;;;;;;;3.25;1.50;;;;;;;;4981306;28;45252;-77
2023/04/13 08:05:02;;;;;;;;;2.00;1.25;;;;;;;;4984534;28;45613;-78
2023/04/13 08:07:28;;;;;;;;;8.75;3.00;;;;;;;;4984462;28;45325;-77
2023/04/13 08:09:53;;;;;;;;;2.25;2.00;;;;;;;;4981563;28;45236;-78
2023/04/13 08:12:18;;;;;;;;;6.00;2.75;;;;;;;;4981130;28;45331;-77
2023/04/13 08:14:44;;;;;;;;;2.00;2.00;;;;;;;;4979173;28;45447;-77
2023/04/13 08:17:10;;;;;;;;;3.25;2.00;;;;;;;;4979312;28;46433;-77
2023/04/13 08:19:35;;;;;;;;;4.75;3.25;;;;;;;;4978863;28;45255;-78
2023/04/13 08:22:00;;;;;;;;;4.50;2.75;;;;;;;;4976932;28;45209;-78
2023/04/13 08:24:26;;;;;;;;;3.50;2.00;;;;;;;;4977199;28;45319;-77
2023/04/13 08:26:53;;;;;;;;;2.75;2.00;;;;;;;;4977356;28;46534;-78
2023/04/13 08:29:19;;;;;;;;;5.00;2.00;;;;;;;;4977231;28;45430;-77
2023/04/13 08:31:44;;;;;;;;;5.00;3.50;;;;;;;;4961493;28;45381;-77
2023/04/13 08:34:10;;;;;;;;;2.50;1.50;;;;;;;;4968817;28;45328;-77
2023/04/13 08:36:36;;;;;;;;;1.50;1.00;;;;;;;;4977507;28;47294;-78
2023/04/13 08:39:01;;;;;;;;;3.50;3.25;;;;;;;;4978201;28;45425;-78
2023/04/13 08:41:28;;;;;;;;;4.00;2.00;;;;;;;;4977473;28;45381;-77
2023/04/13 08:43:54;;;;;;;;;5.50;0.00;;;;;;;;4978005;28;45396;-76
2023/04/13 08:46:20;;;;;;;;;3.75;1.50;;;;;;;;4978878;28;46092;-78
2023/04/13 08:48:47;;;;;;;;;3.50;0.00;;;;;;;;4978832;28;45422;-77
2023/04/13 08:51:12;;;;;;;;;2.25;0.50;;;;;;;;4979261;28;45416;-77
2023/04/13 08:53:38;;;;;;;;;1.50;1.25;;;;;;;;4979256;28;45419;-77
2023/04/13 08:56:07;;;;;;;;;2.25;1.50;;;;;;;;4978197;28;46217;-78
2023/04/13 08:58:34;;;;;;;;;1.50;1.50;;;;;;;;4978175;28;45425;-77
2023/04/13 09:00:59;;;;;;;;;1.25;1.00;;;;;;;;4978309;28;45372;-78
2023/04/13 09:03:27;;;;;;;;;3.50;1.00;;;;;;;;4979247;28;45222;-77
2023/04/13 09:05:58;;;;;;;;;3.50;3.00;;;;;;;;4978972;28;45519;-77
2023/04/13 09:08:24;;;;;;;;;6.50;3.25;;;;;;;;4978258;28;45418;-79
2023/04/13 09:10:50;;;;;;;;;1.00;1.00;;;;;;;;4977573;28;45346;-80
2023/04/13 09:13:15;;;;;;;;;2.25;1.75;;;;;;;;4977536;28;45314;-79
2023/04/13 09:15:41;;;;;;;;;5.00;2.00;;;;;;;;4977869;28;46444;-79
2023/04/13 09:18:08;;;;;;;;;1.25;1.00;;;;;;;;4979076;28;45389;-78
2023/04/13 09:20:33;;;;;;;;;2.00;2.00;;;;;;;;4978773;28;45428;-78
2023/04/13 09:22:58;;;;;;;;;1.00;1.00;;;;;;;;4978983;28;45401;-78
2023/04/13 09:25:26;;;;;;;;;4.00;1.25;;;;;;;;4978525;28;45543;-79
2023/04/13 09:27:51;;;;;;;;;3.00;1.00;;;;;;;;4976890;28;45328;-78
2023/04/13 09:30:20;;;;;;;;;0.50;0.50;;;;;;;;4974471;28;45456;-79
2023/04/13 09:32:46;;;;;;;;;2.00;1.50;;;;;;;;4958822;28;45375;-78
2023/04/13 09:35:12;;;;;;;;;1.25;1.25;;;;;;;;4977428;28;45348;-79
2023/04/13 09:37:41;;;;;;;;;1.75;1.75;;;;;;;;4977519;28;45269;-79
2023/04/13 09:40:09;;;;;;;;;1.00;0.50;;;;;;;;4977218;28;45487;-78
2023/04/13 09:42:34;;;;;;;;;3.00;0.75;;;;;;;;4977997;28;45315;-78
2023/04/13 09:45:00;;;;;;;;;2.50;2.25;;;;;;;;4977294;28;46098;-79
2023/04/13 09:47:33;;;;;;;;;2.75;1.25;;;;;;;;4980528;28;45333;-79
2023/04/13 09:49:58;;;;;;;;;2.25;0.50;;;;;;;;4976745;28;45333;-80
2023/04/13 09:52:23;;;;;;;;;1.25;1.00;;;;;;;;4978611;28;45467;-79
2023/04/13 09:54:50;;;;;;;;;3.00;2.50;;;;;;;;4981978;28;45695;-79
2023/04/13 09:57:25;;;;;;;;;1.25;1.25;;;;;;;;4980606;28;45303;-80
2023/04/13 09:59:50;;;;;;;;;2.00;0.75;;;;;;;;4981017;28;45431;-80
2023/04/13 10:02:17;;;;;;;;;0.25;0.00;;;;;;;;4980698;28;45345;-80
2023/04/13 10:04:42;;;;;;;;;2.75;0.75;;;;;;;;4980963;28;45555;-78
2023/04/13 10:07:09;;;;;;;;;1.75;0.75;;;;;;;;4981310;28;45428;-79
2023/04/13 10:09:35;;;;;;;;;0.25;0.00;;;;;;;;4980546;28;45531;-78
2023/04/13 10:12:02;;;;;;;;;1.00;0.00;;;;;;;;4979802;28;45378;-79
2023/04/13 10:14:30;;;;;;;;;0.00;0.00;;;;;;;;4980773;28;45575;-78
2023/04/13 10:17:15;;;;;;;;;0.00;0.00;;;;;;;;4979637;28;45298;-79
2023/04/13 10:19:43;;;;;;;;;1.50;0.75;;;;;;;;4980223;28;45417;-78
2023/04/13 10:22:10;;;;;;;;;0.25;0.25;;;;;;;;4980414;28;45495;-80
2023/04/13 10:24:35;;;;;;;;;0.00;0.00;;;;;;;;4980811;28;47224;-79
2023/04/13 10:27:09;;;;;;;;;0.25;0.00;;;;;;;;4981277;28;45468;-79
2023/04/13 10:29:34;;;;;;;;;0.00;0.00;;;;;;;;4981285;28;45416;-78
2023/04/13 10:32:02;;;;;;;;;0.00;0.00;;;;;;;;4962169;28;45450;-78
2023/04/13 10:34:31;;;;;;;;;3.00;0.25;;;;;;;;4975359;28;45355;-78
2023/04/13 10:37:01;;;;;;;;;4.00;1.00;;;;;;;;4980964;28;45253;-79
2023/04/13 10:39:28;;;;;;;;;1.00;0.00;;;;;;;;4980882;28;45544;-78
2023/04/13 10:42:03;;;;;;;;;0.00;0.00;;;;;;;;4980662;28;45328;-79
2023/04/13 10:44:41;;;;;;;;;2.00;1.00;;;;;;;;4981311;28;45345;-78
2023/04/13 10:47:07;;;;;;;;;2.00;0.00;;;;;;;;4980569;28;45481;-78
2023/04/13 10:49:32;;;;;;;;;1.50;0.00;;;;;;;;4980637;28;45501;-79
2023/04/13 10:51:57;;;;;;;;;0.25;0.25;;;;;;;;4979292;28;45535;-79
2023/04/13 10:54:26;;;;;;;;;0.50;0.50;;;;;;;;4979094;28;45489;-77
2023/04/13 10:56:55;;;;;;;;;1.00;1.00;;;;;;;;4979463;28;45443;-78
2023/04/13 10:59:21;;;;;;;;;0.25;0.25;;;;;;;;4977982;28;45422;-75
2023/04/13 11:01:46;;;;;;;;;1.25;0.00;;;;;;;;4978252;28;45283;-76
2023/04/13 11:04:11;;;;;;;;;1.50;1.25;;;;;;;;4976701;28;46188;-75
2023/04/13 11:06:37;;;;;;;;;0.00;0.00;;;;;;;;4977592;28;45368;-74
2023/04/13 11:09:05;;;;;;;;;1.00;1.00;;;;;;;;4977980;28;45349;-74
2023/04/13 11:11:30;;;;;;;;;3.00;2.00;;;;;;;;4998380;28;45412;-75
2023/04/13 11:13:56;;;;;;;;;1.00;1.00;;;;;;;;4998263;28;45371;-76
2023/04/13 11:16:21;;;;;;;;;0.75;0.75;;;;;;;;4997559;28;45400;-75
2023/04/13 11:18:46;;;;;;;;;1.75;1.00;;;;;;;;4996438;28;45328;-76
2023/04/13 11:21:15;;;;;;;;;1.00;1.00;;;;;;;;4994289;28;45351;-77
2023/04/13 11:23:40;;;;;;;;;2.00;1.00;;;;;;;;4978140;28;46217;-75
2023/04/13 11:26:05;;;;;;;;;1.00;1.00;;;;;;;;4977015;28;45393;-74
2023/04/13 11:28:39;;;;;;;;;1.00;1.00;;;;;;;;4978059;28;45392;-75
2023/04/13 11:31:06;;;;;;;;;5.25;5.00;;;;;;;;4967883;28;45336;-75
2023/04/13 11:33:32;;;;;;;;;1.75;1.75;;;;;;;;4965137;28;47258;-75
2023/04/13 11:35:59;;;;;;;;;1.25;1.25;;;;;;;;4979504;28;45447;-77
2023/04/13 11:38:24;;;;;;;;;2.25;1.00;;;;;;;;4980858;28;45443;-77
2023/04/13 11:40:50;;;;;;;;;4.00;0.00;;;;;;;;4980743;28;45366;-77
2023/04/13 11:43:16;;;;;;;;;1.75;1.00;;;;;;;;4979470;28;45390;-77
2023/04/13 11:45:42;;;;;;;;;2.00;1.75;;;;;;;;4977077;28;45420;-77
2023/04/13 11:48:08;;;;;;;;;1.50;0.50;;;;;;;;4978222;28;45480;-76
2023/04/13 11:50:34;;;;;;;;;3.75;1.75;;;;;;;;4978557;28;45365;-79
2023/04/13 11:52:59;;;;;;;;;0.75;0.75;;;;;;;;4975569;28;45475;-75
2023/04/13 11:55:25;;;;;;;;;0.25;0.25;;;;;;;;4957503;28;45398;-76
2023/04/13 11:57:51;;;;;;;;;0.00;0.00;;;;;;;;4964410;28;45313;-76
2023/04/13 12:00:20;;;;;;;;;2.25;0.00;;;;;;;;4976871;28;45606;-76
2023/04/13 12:02:45;;;;;;;;;1.25;1.25;;;;;;;;4976944;28;46733;-75
2023/04/13 12:05:24;;;;;;;;;0.75;0.75;;;;;;;;4976606;28;45401;-74
2023/04/13 12:07:53;;;;;;;;;0.50;0.00;;;;;;;;4976689;28;46129;-73
2023/04/13 12:10:23;;;;;;;;;1.00;1.00;;;;;;;;4976327;28;45433;-76
2023/04/13 12:12:57;;;;;;;;;1.00;1.00;;;;;;;;4975924;28;45437;-76
2023/04/13 12:15:32;;;;;;;;;3.00;3.00;;;;;;;;4975363;28;45449;-76
2023/04/13 12:17:58;;;;;;;;;1.25;1.25;;;;;;;;4975396;28;45409;-76
2023/04/13 12:20:24;;;;;;;;;0.75;0.75;;;;;;;;4975770;28;45314;-75
2023/04/13 12:22:50;;;;;;;;;1.00;1.00;;;;;;;;4990311;28;45225;-77
2023/04/13 12:25:21;;;;;;;;;1.00;1.00;;;;;;;;4995790;28;45401;-76
2023/04/13 12:27:53;;;;;;;;;0.00;0.00;;;;;;;;4995097;28;45369;-76
2023/04/13 12:30:21;;;;;;;;;1.00;0.50;;;;;;;;4990275;28;45432;-76
2023/04/13 12:32:47;;;;;;;;;1.50;0.00;;;;;;;;4976205;28;45541;-76
2023/04/13 12:35:13;;;;;;;;;3.00;2.00;;;;;;;;4975992;28;45414;-75
2023/04/13 12:37:39;;;;;;;;;1.00;1.00;;;;;;;;4975930;28;45365;-77
2023/04/13 12:40:08;;;;;;;;;2.75;1.50;;;;;;;;4976414;28;45341;-76
2023/04/13 12:42:33;;;;;;;;;2.50;2.00;;;;;;;;4975660;28;45698;-76
2023/04/13 12:44:58;;;;;;;;;1.00;1.00;;;;;;;;4976594;28;45630;-75
2023/04/13 12:47:24;;;;;;;;;4.25;3.25;;;;;;;;4975231;28;45436;-76
2023/04/13 12:49:49;;;;;;;;;1.00;1.00;;;;;;;;4975578;28;45752;-76
2023/04/13 12:52:15;;;;;;;;;2.50;2.00;;;;;;;;4973777;28;46219;-75
2023/04/13 12:54:40;;;;;;;;;6.00;3.25;;;;;;;;4976180;28;45446;-76
2023/04/13 12:57:06;;;;;;;;;0.25;0.25;;;;;;;;4976111;28;45531;-75
2023/04/13 12:59:31;;;;;;;;;4.50;2.25;;;;;;;;4975719;28;45483;-77
2023/04/13 13:01:56;;;;;;;;;3.00;2.00;;;;;;;;4975733;28;45471;-77
2023/04/13 13:04:22;;;;;;;;;2.00;1.25;;;;;;;;4976514;28;45770;-76
2023/04/13 13:06:47;;;;;;;;;2.00;1.00;;;;;;;;4974895;28;45452;-76
2023/04/13 13:09:12;;;;;;;;;1.00;1.00;;;;;;;;4976294;28;45380;-77
2023/04/13 13:11:37;;;;;;;;;2.50;1.00;;;;;;;;4958285;28;46218;-75
2023/04/13 13:14:03;;;;;;;;;1.50;1.00;;;;;;;;4974991;28;45377;-75
2023/04/13 13:16:28;;;;;;;;;2.00;0.75;;;;;;;;4976056;28;45326;-76
2023/04/13 13:18:53;;;;;;;;;0.75;0.75;;;;;;;;4976269;28;45349;-76
2023/04/13 13:21:18;;;;;;;;;6.00;3.00;;;;;;;;4975612;28;45495;-77
2023/04/13 13:23:44;;;;;;;;;1.50;1.25;;;;;;;;4976461;28;45384;-78
2023/04/13 13:26:09;;;;;;;;;1.00;1.00;;;;;;;;4976431;28;45369;-77
2023/04/13 13:28:34;;;;;;;;;2.50;0.75;;;;;;;;4976446;28;45330;-78
2023/04/13 13:31:00;;;;;;;;;1.75;0.00;;;;;;;;4967019;28;46504;-78
2023/04/13 13:33:25;;;;;;;;;1.00;0.00;;;;;;;;4962749;28;45441;-77
2023/04/13 13:35:51;;;;;;;;;3.00;1.00;;;;;;;;4976884;28;45449;-78
2023/04/13 13:38:16;;;;;;;;;2.00;2.00;;;;;;;;4976999;28;45550;-79
2023/04/13 13:40:41;;;;;;;;;0.75;0.75;;;;;;;;4976553;28;46403;-76
2023/04/13 13:43:07;;;;;;;;;0.75;0.75;;;;;;;;4976321;28;45465;-77
2023/04/13 13:45:32;;;;;;;;;1.50;0.25;;;;;;;;4974851;28;45397;-76
2023/04/13 13:47:58;;;;;;;;;2.75;1.75;;;;;;;;4976387;28;45388;-78
2023/04/13 13:50:23;;;;;;;;;3.00;0.25;;;;;;;;4976171;28;47475;-77
2023/04/13 13:52:49;;;;;;;;;2.50;1.25;;;;;;;;4976882;28;45404;-77
2023/04/13 13:55:18;;;;;;;;;0.00;0.00;;;;;;;;4976463;28;45434;-78
2023/04/13 13:57:43;;;;;;;;;3.25;1.00;;;;;;;;4977373;28;45448;-78
2023/04/13 14:00:15;;;;;;;;;0.25;0.25;;;;;;;;4976915;28;46305;-79
2023/04/13 14:02:40;;;;;;;;;0.25;0.25;;;;;;;;4977100;28;45424;-78
2023/04/13 14:05:07;;;;;;;;;0.25;0.00;;;;;;;;4976819;28;45328;-79
2023/04/13 14:07:32;;;;;;;;;2.00;0.50;;;;;;;;4977079;28;45484;-76
2023/04/13 14:09:58;;;;;;;;;0.00;0.00;;;;;;;;4976618;28;45853;-79
2023/04/13 14:12:23;;;;;;;;;2.25;1.75;;;;;;;;4977021;28;45502;-77
2023/04/13 14:14:48;;;;;;;;;1.50;0.50;;;;;;;;4977526;28;45442;-78
2023/04/13 14:17:13;;;;;;;;;0.75;0.00;;;;;;;;4976932;28;45489;-79
2023/04/13 14:19:38;;;;;;;;;1.00;1.00;;;;;;;;4975119;28;48592;-78
2023/04/13 14:22:03;;;;;;;;;0.75;0.75;;;;;;;;4977030;28;45376;-79
2023/04/13 14:24:29;;;;;;;;;2.00;2.00;;;;;;;;4977800;28;45417;-79
2023/04/13 14:26:54;;;;;;;;;1.25;0.00;;;;;;;;4978016;28;45365;-78
2023/04/13 14:29:19;;;;;;;;;1.75;1.50;;;;;;;;4976352;28;45311;-76
2023/04/13 14:31:45;;;;;;;;;2.00;2.00;;;;;;;;4961240;28;45418;-78
2023/04/13 14:34:10;;;;;;;;;1.00;1.00;;;;;;;;4957054;28;45291;-78
2023/04/13 14:36:35;;;;;;;;;1.50;0.50;;;;;;;;4957526;28;45358;-78
2023/04/13 14:39:01;;;;;;;;;1.25;0.75;;;;;;;;4977120;28;45421;-78